Time;durP1;ratioP1;P1;durP2;ratioP2;P2;SDS_P1;SDS_P2;PMS_P1;PMS_P2;Temp;Humidity;BMP_temperature;BMP_pressure;BME280_temperature;BME280_humidity;BME280_pressure;Samples;Min_cycle;Max_cycle;Signal;HPM_P1;HPM_P2
2022/04/13 00:01:21;;;;;;;8.18;4.38;;;12.10;99.90;;;;;;4978624;28;20206;-61
2022/04/13 00:03:47;;;;;;;7.53;4.30;;;12.10;99.90;;;;;;5004805;28;20199;-61
2022/04/13 00:06:15;;;;;;;5.40;3.72;;;12.10;99.90;;;;;;4988149;28;20233;-62
2022/04/13 00:08:44;;;;;;;6.55;4.40;;;12.10;99.90;;;;;;5004012;28;20750;-62
2022/04/13 00:11:13;;;;;;;6.25;4.78;;;12.10;99.90;;;;;;5004935;28;20218;-61
2022/04/13 00:13:40;;;;;;;5.85;4.68;;;12.10;99.90;;;;;;4997861;28;20216;-61
2022/04/13 00:16:07;;;;;;;5.35;4.47;;;12.00;99.90;;;;;;4978710;28;21382;-61
2022/04/13 00:18:34;;;;;;;6.72;4.60;;;12.00;99.90;;;;;;5009363;28;20202;-61
2022/04/13 00:21:01;;;;;;;9.50;4.07;;;11.90;99.90;;;;;;4985681;28;20235;-62
2022/04/13 00:23:28;;;;;;;5.32;3.95;;;12.00;99.90;;;;;;5007298;28;20295;-63
2022/04/13 00:25:56;;;;;;;5.97;4.43;;;12.00;99.90;;;;;;5004496;28;20578;-62
2022/04/13 00:28:23;;;;;;;6.82;4.50;;;11.90;99.90;;;;;;5006505;28;20203;-61
2022/04/13 00:30:50;;;;;;;9.32;5.13;;;11.90;99.90;;;;;;4999669;28;20209;-61
2022/04/13 00:33:17;;;;;;;8.48;4.80;;;11.90;99.90;;;;;;4996221;28;20214;-62
2022/04/13 00:35:44;;;;;;;5.18;4.05;;;11.80;99.90;;;;;;5000326;28;20209;-61
2022/04/13 00:38:11;;;;;;;5.18;3.40;;;11.80;99.90;;;;;;4994660;28;20201;-61
2022/04/13 00:40:40;;;;;;;7.32;4.22;;;11.80;99.90;;;;;;5006096;28;21609;-62
2022/04/13 00:43:09;;;;;;;4.82;3.90;;;11.80;99.90;;;;;;4994744;28;20214;-62
2022/04/13 00:45:35;;;;;;;7.80;4.07;;;11.90;99.90;;;;;;5008291;28;20209;-61
2022/04/13 00:48:03;;;;;;;6.20;3.97;;;11.80;99.90;;;;;;4986968;28;20217;-61
2022/04/13 00:50:30;;;;;;;6.55;4.03;;;11.80;99.90;;;;;;4995942;28;20721;-62
2022/04/13 00:52:59;;;;;;;10.15;4.00;;;11.80;99.90;;;;;;4995347;28;20218;-61
2022/04/13 00:55:27;;;;;;;5.85;4.10;;;11.70;99.90;;;;;;5008344;28;20575;-61
2022/04/13 00:57:58;;;;;;;7.95;4.07;;;11.70;99.90;;;;;;4996697;28;20214;-62
2022/04/13 01:00:26;;;;;;;5.20;4.20;;;11.80;99.90;;;;;;5005205;28;20789;-61
2022/04/13 01:02:54;;;;;;;9.50;3.83;;;11.70;99.90;;;;;;4989639;28;20802;-61
2022/04/13 01:05:22;;;;;;;5.50;4.03;;;11.70;99.90;;;;;;5004189;28;20194;-61
2022/04/13 01:07:50;;;;;;;5.70;4.32;;;11.60;99.90;;;;;;4985939;28;20202;-61
2022/04/13 01:10:19;;;;;;;5.80;4.28;;;11.60;99.90;;;;;;5007812;28;20219;-62
2022/04/13 01:12:45;;;;;;;6.03;4.25;;;11.60;99.90;;;;;;5009562;28;20685;-61
2022/04/13 01:15:12;;;;;;;4.97;3.90;;;11.60;99.90;;;;;;4998849;28;20210;-62
2022/04/13 01:17:43;;;;;;;7.28;4.28;;;11.50;99.90;;;;;;5007775;28;20217;-61
2022/04/13 01:20:11;;;;;;;11.00;4.38;;;11.60;99.90;;;;;;4994305;28;20222;-61
2022/04/13 01:22:40;;;;;;;7.40;4.35;;;11.50;99.90;;;;;;4998142;28;20214;-62
2022/04/13 01:25:08;;;;;;;6.70;3.58;;;11.50;99.90;;;;;;5015182;28;20200;-61
2022/04/13 01:27:35;;;;;;;4.20;3.35;;;11.40;99.90;;;;;;5021233;28;20198;-61
2022/04/13 01:30:07;;;;;;;6.07;3.85;;;11.50;99.90;;;;;;5037166;28;20278;-61
2022/04/13 01:32:34;;;;;;;6.30;4.28;;;11.50;99.90;;;;;;5021763;28;20198;-61
2022/04/13 01:35:01;;;;;;;7.15;4.18;;;11.50;99.90;;;;;;5001301;28;20214;-62
2022/04/13 01:37:28;;;;;;;5.25;3.83;;;11.50;99.90;;;;;;5012683;28;20202;-61
2022/04/13 01:39:57;;;;;;;5.28;3.88;;;11.50;99.90;;;;;;5001992;28;20328;-61
2022/04/13 01:42:24;;;;;;;6.72;4.18;;;11.50;99.90;;;;;;5007890;28;20209;-61
2022/04/13 01:44:51;;;;;;;5.82;4.30;;;11.50;99.90;;;;;;4998367;28;20214;-61
2022/04/13 01:47:18;;;;;;;4.85;4.00;;;11.50;99.90;;;;;;5006867;28;20206;-61
2022/04/13 01:49:45;;;;;;;11.30;4.07;;;11.50;99.90;;;;;;4982238;28;20208;-61
2022/04/13 01:52:12;;;;;;;7.28;4.10;;;11.50;99.90;;;;;;5010441;28;20194;-61
2022/04/13 01:54:39;;;;;;;6.50;4.07;;;11.50;99.90;;;;;;4996028;28;21171;-62
2022/04/13 01:57:07;;;;;;;7.43;3.65;;;11.50;99.90;;;;;;4999520;28;20206;-61
2022/04/13 01:59:34;;;;;;;7.55;4.00;;;11.50;99.90;;;;;;5007755;28;20202;-61
2022/04/13 02:02:04;;;;;;;6.00;4.13;;;11.40;99.90;;;;;;5011218;28;20457;-61
2022/04/13 02:04:32;;;;;;;8.30;3.97;;;11.30;99.90;;;;;;4988541;28;20428;-61
2022/04/13 02:07:00;;;;;;;5.32;4.20;;;11.40;99.90;;;;;;5007725;28;20224;-61
2022/04/13 02:09:27;;;;;;;8.35;4.38;;;11.30;99.90;;;;;;5003547;28;21320;-62
2022/04/13 02:11:54;;;;;;;6.82;4.45;;;11.20;99.90;;;;;;4986276;28;20206;-62
2022/04/13 02:14:22;;;;;;;6.32;4.32;;;11.20;99.90;;;;;;5004906;28;20296;-61
2022/04/13 02:16:49;;;;;;;5.35;4.20;;;11.20;99.90;;;;;;5007129;28;20566;-61
2022/04/13 02:19:17;;;;;;;6.68;4.32;;;11.20;99.90;;;;;;4995977;28;20204;-62
2022/04/13 02:21:44;;;;;;;5.43;4.43;;;11.10;99.90;;;;;;5008130;28;20376;-61
2022/04/13 02:24:11;;;;;;;5.05;3.80;;;11.10;99.90;;;;;;5008525;28;20199;-62
2022/04/13 02:26:38;;;;;;;5.18;4.05;;;11.00;99.90;;;;;;5000209;28;20198;-61
2022/04/13 02:29:05;;;;;;;4.57;3.30;;;11.10;99.90;;;;;;5000909;28;20217;-62
2022/04/13 02:31:33;;;;;;;5.47;3.92;;;11.00;99.90;;;;;;5007712;28;20257;-61
2022/04/13 02:34:04;;;;;;;7.53;4.50;;;10.90;99.90;;;;;;5008432;28;20214;-61
2022/04/13 02:36:31;;;;;;;9.23;4.57;;;10.90;99.90;;;;;;4991006;28;20896;-61
2022/04/13 02:38:58;;;;;;;7.75;4.35;;;10.90;99.90;;;;;;5011649;28;20205;-61
2022/04/13 02:41:24;;;;;;;5.35;4.15;;;10.80;99.90;;;;;;5009140;28;20251;-61
2022/04/13 02:43:51;;;;;;;5.47;4.35;;;10.80;99.90;;;;;;4999748;28;20203;-62
2022/04/13 02:46:18;;;;;;;4.93;3.88;;;10.80;99.90;;;;;;5005913;28;20201;-61
2022/04/13 02:48:46;;;;;;;8.02;5.10;;;10.80;99.90;;;;;;5008485;28;20328;-61
2022/04/13 02:51:15;;;;;;;5.43;4.38;;;10.80;99.90;;;;;;4990986;28;20213;-61
2022/04/13 02:53:42;;;;;;;5.07;4.28;;;10.70;99.90;;;;;;5011196;28;20881;-61
2022/04/13 02:56:09;;;;;;;6.28;4.40;;;10.70;99.90;;;;;;5008774;28;20202;-61
2022/04/13 02:58:36;;;;;;;6.95;4.30;;;10.70;99.90;;;;;;4994620;28;20210;-61
2022/04/13 03:01:03;;;;;;;7.32;4.55;;;10.70;99.90;;;;;;5006102;28;20589;-61
2022/04/13 03:03:30;;;;;;;6.20;4.20;;;10.70;99.90;;;;;;5007735;28;20217;-61
2022/04/13 03:05:58;;;;;;;7.82;4.32;;;10.60;99.90;;;;;;5007196;28;20202;-61
2022/04/13 03:08:26;;;;;;;7.78;4.45;;;10.50;99.90;;;;;;4992783;28;20222;-62
2022/04/13 03:10:53;;;;;;;8.13;4.82;;;10.50;99.90;;;;;;5006718;28;20291;-62
2022/04/13 03:13:21;;;;;;;7.57;5.00;;;10.40;99.90;;;;;;4991890;28;20220;-62
2022/04/13 03:15:47;;;;;;;5.47;4.05;;;10.40;99.90;;;;;;5007656;28;20213;-61
2022/04/13 03:18:14;;;;;;;8.20;4.93;;;10.40;99.90;;;;;;5004037;28;20203;-61
2022/04/13 03:20:41;;;;;;;8.05;4.88;;;10.40;99.90;;;;;;5007669;28;20225;-61
2022/04/13 03:23:09;;;;;;;7.65;4.78;;;10.40;99.90;;;;;;4984511;28;20230;-62
2022/04/13 03:25:36;;;;;;;6.07;4.15;;;10.30;99.90;;;;;;5003361;28;20206;-61
2022/04/13 03:28:04;;;;;;;7.20;4.72;;;10.30;99.90;;;;;;5005086;28;20218;-62
2022/04/13 03:30:31;;;;;;;7.53;4.85;;;10.30;99.90;;;;;;4988545;28;20277;-61
2022/04/13 03:32:58;;;;;;;5.75;4.30;;;10.20;99.90;;;;;;5010274;28;20196;-61
2022/04/13 03:35:25;;;;;;;12.45;4.93;;;10.30;99.90;;;;;;4997591;28;20834;-61
2022/04/13 03:37:52;;;;;;;9.80;4.35;;;10.30;99.90;;;;;;5011997;28;20665;-62
2022/04/13 03:40:21;;;;;;;5.35;4.50;;;10.30;99.90;;;;;;4990606;28;20217;-61
2022/04/13 03:42:48;;;;;;;11.23;4.57;;;10.20;99.90;;;;;;5011297;28;20194;-61
2022/04/13 03:45:15;;;;;;;6.10;4.65;;;10.20;99.90;;;;;;4983805;28;20209;-61
2022/04/13 03:47:42;;;;;;;8.15;4.65;;;10.20;99.90;;;;;;5006755;28;20210;-61
2022/04/13 03:50:10;;;;;;;5.40;4.00;;;10.20;99.90;;;;;;5011206;28;20198;-61
2022/04/13 03:52:38;;;;;;;9.30;4.75;;;10.10;99.90;;;;;;5008862;28;20194;-61
2022/04/13 03:55:07;;;;;;;6.38;4.85;;;10.10;99.90;;;;;;4994202;28;20217;-61
2022/04/13 03:57:36;;;;;;;7.60;4.63;;;10.10;99.90;;;;;;5011027;28;20280;-61
2022/04/13 04:00:04;;;;;;;5.18;4.20;;;10.20;99.90;;;;;;4998078;28;20206;-61
2022/04/13 04:02:31;;;;;;;11.63;4.17;;;10.10;99.90;;;;;;5008595;28;20837;-61
2022/04/13 04:04:57;;;;;;;5.30;4.25;;;10.10;99.90;;;;;;5014288;28;20202;-61
2022/04/13 04:07:24;;;;;;;6.78;4.40;;;10.10;99.90;;;;;;5018970;28;20200;-61
2022/04/13 04:09:52;;;;;;;6.82;4.43;;;10.10;99.90;;;;;;5025574;28;20282;-58
2022/04/13 04:12:18;;;;;;;8.68;4.05;;;10.10;99.90;;;;;;5027339;28;20201;-61
2022/04/13 04:14:47;;;;;;;6.93;4.50;;;10.10;99.90;;;;;;5007884;28;20297;-61
2022/04/13 04:17:14;;;;;;;6.50;4.35;;;10.10;99.90;;;;;;5004029;28;20204;-61
2022/04/13 04:19:41;;;;;;;8.57;4.60;;;10.10;99.90;;;;;;5008554;28;20209;-61
2022/04/13 04:22:07;;;;;;;6.15;4.18;;;10.10;99.90;;;;;;5009471;28;20394;-62
2022/04/13 04:24:34;;;;;;;5.70;4.13;;;10.10;99.90;;;;;;4990568;28;20245;-61
2022/04/13 04:27:01;;;;;;;10.52;4.35;;;10.10;99.90;;;;;;5006241;28;20208;-61
2022/04/13 04:29:28;;;;;;;6.13;3.93;;;10.10;99.90;;;;;;5005619;28;20209;-61
2022/04/13 04:31:59;;;;;;;6.45;4.43;;;10.10;99.90;;;;;;4995050;28;20211;-62
2022/04/13 04:34:27;;;;;;;7.70;4.00;;;10.00;99.90;;;;;;4997425;28;20212;-61
2022/04/13 04:36:53;;;;;;;6.15;4.20;;;10.00;99.90;;;;;;5004878;28;20254;-61
2022/04/13 04:39:20;;;;;;;4.85;4.03;;;10.10;99.90;;;;;;5005779;28;20197;-61
2022/04/13 04:41:48;;;;;;;7.53;4.27;;;10.00;99.90;;;;;;4991293;28;20231;-61
2022/04/13 04:44:15;;;;;;;8.63;4.50;;;10.00;99.90;;;;;;5005450;28;20695;-62
2022/04/13 04:46:41;;;;;;;8.37;4.50;;;10.00;99.90;;;;;;4992102;28;21098;-61
2022/04/13 04:49:10;;;;;;;12.50;4.50;;;10.00;99.90;;;;;;4994814;28;20691;-61
2022/04/13 04:51:37;;;;;;;8.90;4.40;;;10.10;99.90;;;;;;5005739;28;20210;-61
2022/04/13 04:54:04;;;;;;;6.43;4.23;;;10.00;99.90;;;;;;5003791;28;20309;-61
2022/04/13 04:56:31;;;;;;;8.83;4.40;;;10.00;99.90;;;;;;4981340;28;20214;-61
2022/04/13 04:58:58;;;;;;;5.33;4.07;;;9.90;99.90;;;;;;5016210;28;20194;-61
2022/04/13 05:01:25;;;;;;;6.03;4.68;;;9.80;99.90;;;;;;5006116;28;20229;-61
2022/04/13 05:03:53;;;;;;;6.35;4.25;;;9.80;99.90;;;;;;4994946;28;20204;-62
2022/04/13 05:06:22;;;;;;;5.78;4.20;;;9.70;99.90;;;;;;5007541;28;20212;-61
2022/04/13 05:08:49;;;;;;;9.52;4.30;;;9.70;99.90;;;;;;5015150;28;20647;-61
2022/04/13 05:11:16;;;;;;;8.97;4.47;;;9.80;99.90;;;;;;4985005;28;20209;-61
2022/04/13 05:13:45;;;;;;;6.23;4.53;;;9.90;99.90;;;;;;5009860;28;20214;-61
2022/04/13 05:16:13;;;;;;;7.73;4.70;;;9.90;99.90;;;;;;4990361;28;20297;-61
2022/04/13 05:18:41;;;;;;;6.28;4.30;;;9.90;99.90;;;;;;4995778;28;20209;-61
2022/04/13 05:21:08;;;;;;;15.88;5.53;;;9.90;99.90;;;;;;5000402;28;20261;-61
2022/04/13 05:23:37;;;;;;;10.57;5.00;;;10.00;99.90;;;;;;5010003;28;20199;-63
2022/04/13 05:26:05;;;;;;;12.47;5.37;;;9.90;99.90;;;;;;5008518;28;20201;-61
2022/04/13 05:28:32;;;;;;;11.57;5.10;;;10.00;99.90;;;;;;4990786;28;20216;-61
2022/04/13 05:30:59;;;;;;;6.55;4.60;;;9.90;99.90;;;;;;4998535;28;20211;-61
2022/04/13 05:33:26;;;;;;;6.43;3.92;;;9.90;99.90;;;;;;4998198;28;20194;-61
2022/04/13 05:35:53;;;;;;;6.00;4.70;;;9.90;99.90;;;;;;5003791;28;20211;-61
2022/04/13 05:38:21;;;;;;;7.20;4.77;;;9.90;99.90;;;;;;5009121;28;20202;-61
2022/04/13 05:40:49;;;;;;;9.83;4.47;;;10.00;99.90;;;;;;5010678;28;20281;-61
2022/04/13 05:43:16;;;;;;;6.82;4.18;;;10.10;99.90;;;;;;4994886;28;20212;-62
2022/04/13 05:45:43;;;;;;;6.18;4.00;;;10.20;99.90;;;;;;5006113;28;20202;-61
2022/04/13 05:48:10;;;;;;;9.50;4.30;;;10.20;99.90;;;;;;4999031;28;20213;-61
2022/04/13 05:50:37;;;;;;;10.90;4.40;;;10.20;99.90;;;;;;5002443;28;20206;-61
2022/04/13 05:53:04;;;;;;;9.97;5.00;;;10.30;99.90;;;;;;5005690;28;20207;-61
2022/04/13 05:55:31;;;;;;;6.85;4.82;;;10.30;99.90;;;;;;5002404;28;20206;-61
2022/04/13 05:57:59;;;;;;;5.88;4.57;;;10.40;99.90;;;;;;4997307;28;20214;-61
2022/04/13 06:00:27;;;;;;;7.03;4.85;;;10.40;99.90;;;;;;5006655;28;20202;-61
2022/04/13 06:02:54;;;;;;;10.95;4.95;;;10.40;99.90;;;;;;4990162;28;20222;-61
2022/04/13 06:05:22;;;;;;;7.35;4.25;;;10.50;99.90;;;;;;4997848;28;20202;-61
2022/04/13 06:07:49;;;;;;;11.98;4.70;;;10.50;99.90;;;;;;5000327;28;20211;-62
2022/04/13 06:10:19;;;;;;;9.98;4.75;;;10.50;99.90;;;;;;5007215;28;20359;-62
2022/04/13 06:12:47;;;;;;;6.55;4.10;;;10.50;99.90;;;;;;5007371;28;20243;-62
2022/04/13 06:15:15;;;;;;;6.28;4.57;;;10.60;99.90;;;;;;4987396;28;20230;-62
2022/04/13 06:17:42;;;;;;;4.97;4.23;;;10.60;99.90;;;;;;5003159;28;20603;-61
2022/04/13 06:20:10;;;;;;;8.75;5.07;;;10.70;99.90;;;;;;5011409;28;20202;-62
2022/04/13 06:22:38;;;;;;;7.40;4.72;;;10.70;99.90;;;;;;5003657;28;20232;-62
2022/04/13 06:25:06;;;;;;;6.88;4.50;;;10.70;99.90;;;;;;5003008;28;20210;-62
2022/04/13 06:27:35;;;;;;;6.07;4.68;;;10.70;99.90;;;;;;4996964;28;20237;-62
2022/04/13 06:30:02;;;;;;;5.20;4.53;;;10.80;99.90;;;;;;4994997;28;20206;-61
2022/04/13 06:32:34;;;;;;;7.13;4.45;;;10.80;99.90;;;;;;4998182;28;20580;-62
2022/04/13 06:35:01;;;;;;;7.32;4.18;;;10.90;99.90;;;;;;5010431;28;20205;-61
2022/04/13 06:37:28;;;;;;;11.55;4.72;;;11.00;99.90;;;;;;4999699;28;20659;-61
2022/04/13 06:39:56;;;;;;;7.32;4.57;;;11.10;99.90;;;;;;5002621;28;20288;-62
2022/04/13 06:42:24;;;;;;;5.32;4.50;;;11.10;99.90;;;;;;4997986;28;20386;-62
2022/04/13 06:44:53;;;;;;;6.60;4.60;;;11.20;99.90;;;;;;5017231;28;20226;-62
2022/04/13 06:47:20;;;;;;;5.90;4.45;;;11.20;99.90;;;;;;4996619;28;20215;-62
2022/04/13 06:49:49;;;;;;;23.52;5.38;;;11.30;99.90;;;;;;5027062;28;20191;-61
2022/04/13 06:52:16;;;;;;;6.72;4.70;;;11.30;99.90;;;;;;5013703;28;20289;-62
2022/04/13 06:54:43;;;;;;;6.65;4.90;;;11.40;99.90;;;;;;5019830;28;20224;-62
2022/04/13 06:57:10;;;;;;;6.95;4.72;;;11.50;99.90;;;;;;4994310;28;20313;-62
2022/04/13 06:59:37;;;;;;;9.05;5.03;;;11.60;99.90;;;;;;5011548;28;20219;-61
2022/04/13 07:02:06;;;;;;;8.23;4.65;;;11.60;99.90;;;;;;4996825;28;20969;-61
2022/04/13 07:04:34;;;;;;;7.22;4.88;;;11.70;99.90;;;;;;4994382;28;20230;-62
2022/04/13 07:07:02;;;;;;;6.28;5.15;;;11.80;99.90;;;;;;5009111;28;20212;-62
2022/04/13 07:09:30;;;;;;;8.55;5.03;;;11.80;99.90;;;;;;4991135;28;20768;-62
2022/04/13 07:11:57;;;;;;;9.00;5.25;;;11.80;99.90;;;;;;4998738;28;20209;-62
2022/04/13 07:14:24;;;;;;;9.85;5.13;;;11.90;99.90;;;;;;4990084;28;20226;-62
2022/04/13 07:16:51;;;;;;;8.95;3.78;;;11.90;99.90;;;;;;5004836;28;20232;-61
2022/04/13 07:19:18;;;;;;;9.35;5.35;;;12.10;99.90;;;;;;4974093;28;21034;-62
2022/04/13 07:21:46;;;;;;;11.95;5.80;;;12.30;99.90;;;;;;5001543;28;20604;-61
2022/04/13 07:24:14;;;;;;;18.10;6.00;;;12.40;99.90;;;;;;4983696;28;20592;-62
2022/04/13 07:26:41;;;;;;;20.17;6.38;;;12.50;99.90;;;;;;4993241;28;20226;-62
2022/04/13 07:29:08;;;;;;;7.90;5.43;;;12.60;99.90;;;;;;4992184;28;20210;-62
2022/04/13 07:31:35;;;;;;;18.30;5.95;;;12.60;99.90;;;;;;5003063;28;20264;-62
2022/04/13 07:34:02;;;;;;;8.80;6.28;;;12.70;99.90;;;;;;4981300;28;20215;-61
2022/04/13 07:36:30;;;;;;;5.97;4.05;;;12.80;99.90;;;;;;4987162;28;20211;-63
2022/04/13 07:38:57;;;;;;;9.88;5.72;;;12.90;99.90;;;;;;5000435;28;21164;-62
2022/04/13 07:41:25;;;;;;;9.32;6.22;;;13.00;99.90;;;;;;4978350;28;20229;-62
2022/04/13 07:43:52;;;;;;;10.82;6.10;;;13.10;99.90;;;;;;4986600;28;20225;-62
2022/04/13 07:46:19;;;;;;;9.98;6.03;;;13.10;99.90;;;;;;5005375;28;20199;-62
2022/04/13 07:48:46;;;;;;;7.95;6.07;;;13.20;99.90;;;;;;4971008;28;20229;-62
2022/04/13 07:51:13;;;;;;;8.48;6.40;;;13.20;99.90;;;;;;4996721;28;20210;-62
2022/04/13 07:53:40;;;;;;;12.82;7.00;;;13.20;99.90;;;;;;4990931;28;20230;-62
2022/04/13 07:56:07;;;;;;;13.43;7.00;;;13.30;99.90;;;;;;4978390;28;20230;-62
2022/04/13 07:58:36;;;;;;;10.85;6.63;;;13.30;99.90;;;;;;4983487;28;20281;-62
2022/04/13 08:01:03;;;;;;;11.07;6.22;;;13.30;99.90;;;;;;4998070;28;20312;-62
2022/04/13 08:03:30;;;;;;;6.50;5.13;;;13.30;99.90;;;;;;4982507;28;20251;-62
2022/04/13 08:05:58;;;;;;;12.63;7.47;;;13.30;99.90;;;;;;4997759;28;20218;-62
2022/04/13 08:08:25;;;;;;;16.60;7.22;;;13.50;99.90;;;;;;5002228;28;20213;-62
2022/04/13 08:10:51;;;;;;;12.27;7.95;;;13.50;99.90;;;;;;4987860;28;20670;-62
2022/04/13 08:13:19;;;;;;;12.05;7.07;;;13.50;99.90;;;;;;5010441;28;20222;-62
2022/04/13 08:15:47;;;;;;;12.50;7.47;;;13.60;99.90;;;;;;4987323;28;20656;-62
2022/04/13 08:18:14;;;;;;;13.25;7.55;;;13.60;99.90;;;;;;4987432;28;20313;-61
2022/04/13 08:20:41;;;;;;;10.90;6.82;;;13.60;99.90;;;;;;5002121;28;21037;-62
2022/04/13 08:23:08;;;;;;;15.48;7.97;;;13.70;99.90;;;;;;4994093;28;20789;-62
2022/04/13 08:25:35;;;;;;;10.07;7.25;;;13.70;99.90;;;;;;4982599;28;20210;-62
2022/04/13 08:28:02;;;;;;;10.05;7.13;;;13.70;99.90;;;;;;4989810;28;20280;-62
2022/04/13 08:30:29;;;;;;;12.70;7.82;;;13.90;99.90;;;;;;4984424;28;20203;-63
2022/04/13 08:32:57;;;;;;;10.57;7.95;;;13.90;99.90;;;;;;5003682;28;20222;-63
2022/04/13 08:35:24;;;;;;;9.80;7.35;;;13.90;99.90;;;;;;4985026;28;20226;-62
2022/04/13 08:37:51;;;;;;;13.23;8.63;;;14.00;99.90;;;;;;4994716;28;20867;-62
2022/04/13 08:40:19;;;;;;;14.07;7.90;;;14.00;99.90;;;;;;4996347;28;20206;-62
2022/04/13 08:42:52;;;;;;;10.07;7.35;;;14.20;99.90;;;;;;4988960;28;20234;-62
2022/04/13 08:45:24;;;;;;;12.98;7.88;;;14.20;99.90;;;;;;4997662;28;20232;-62
2022/04/13 08:47:56;;;;;;;12.30;7.18;;;14.30;99.90;;;;;;4995756;28;20320;-63
2022/04/13 08:50:27;;;;;;;15.93;7.55;;;14.30;99.90;;;;;;4976238;28;20272;-62
2022/04/13 08:52:58;;;;;;;12.73;7.47;;;14.40;99.90;;;;;;4992166;28;20222;-62
2022/04/13 08:55:27;;;;;;;16.20;7.20;;;14.40;99.90;;;;;;4988369;28;20267;-62
2022/04/13 08:58:00;;;;;;;16.77;7.35;;;14.40;99.90;;;;;;4988105;28;20210;-62
2022/04/13 09:00:31;;;;;;;12.75;7.53;;;14.50;99.90;;;;;;4996723;28;20222;-62
2022/04/13 09:03:29;;;;;;;13.45;6.15;;;14.60;99.90;;;;;;4995781;28;20680;-62
2022/04/13 09:05:58;;;;;;;11.00;7.30;;;14.70;99.90;;;;;;4991123;28;20781;-62
2022/04/13 09:08:35;;;;;;;16.13;6.85;;;14.70;99.90;;;;;;4995477;28;20210;-62
2022/04/13 09:11:04;;;;;;;13.98;6.75;;;14.90;99.90;;;;;;4978550;28;20232;-62
2022/04/13 09:13:33;;;;;;;12.52;6.97;;;15.00;99.90;;;;;;4994317;28;20234;-62
2022/04/13 09:16:03;;;;;;;12.95;6.75;;;15.10;99.90;;;;;;5005792;28;20220;-62
2022/04/13 09:18:29;;;;;;;14.93;7.68;;;15.30;99.90;;;;;;4999050;28;20237;-62
2022/04/13 09:20:59;;;;;;;11.02;6.50;;;15.40;99.90;;;;;;4988452;28;20621;-63
2022/04/13 09:23:27;;;;;;;11.60;7.03;;;15.50;99.90;;;;;;4993623;28;20324;-62
2022/04/13 09:25:58;;;;;;;13.20;7.07;;;15.60;99.90;;;;;;4998845;28;20226;-62
2022/04/13 09:28:26;;;;;;;12.85;6.40;;;15.60;99.90;;;;;;4997203;28;20675;-62
2022/04/13 09:30:54;;;;;;;10.90;6.07;;;15.60;99.90;;;;;;5013896;28;20210;-61
2022/04/13 09:33:21;;;;;;;11.82;7.05;;;15.70;99.90;;;;;;5016118;28;22454;-62
2022/04/13 09:35:48;;;;;;;17.85;6.82;;;15.80;99.90;;;;;;5001912;28;20321;-62
2022/04/13 09:38:19;;;;;;;14.95;7.10;;;15.80;99.90;;;;;;4991789;28;20238;-62
2022/04/13 09:40:46;;;;;;;8.63;5.93;;;15.90;99.90;;;;;;5006265;28;20218;-62
2022/04/13 09:43:14;;;;;;;8.82;5.90;;;16.00;99.90;;;;;;5004286;28;20327;-63
2022/04/13 09:45:43;;;;;;;9.88;6.63;;;16.00;99.90;;;;;;4997464;28;20249;-63
2022/04/13 09:48:12;;;;;;;18.15;7.07;;;16.10;99.90;;;;;;4985852;28;20237;-63
2022/04/13 09:50:39;;;;;;;14.05;6.90;;;16.10;99.90;;;;;;4993827;28;20212;-63
2022/04/13 09:53:08;;;;;;;14.77;6.93;;;16.20;99.90;;;;;;4970595;28;20229;-63
2022/04/13 09:55:39;;;;;;;13.88;6.88;;;16.30;99.90;;;;;;4999630;28;20606;-63
2022/04/13 09:58:11;;;;;;;8.57;5.63;;;16.30;99.90;;;;;;4991381;28;20236;-63
2022/04/13 10:00:41;;;;;;;10.18;6.63;;;16.50;99.90;;;;;;4992745;28;20221;-62
2022/04/13 10:03:10;;;;;;;10.40;6.10;;;16.60;99.90;;;;;;5013223;28;20225;-63
2022/04/13 10:05:39;;;;;;;11.18;6.55;;;16.60;99.90;;;;;;4999160;28;20897;-63
2022/04/13 10:08:08;;;;;;;8.23;5.22;;;16.60;99.90;;;;;;4984997;28;20231;-62
2022/04/13 10:10:40;;;;;;;13.18;6.60;;;16.70;99.90;;;;;;5018386;28;20194;-63
2022/04/13 10:13:06;;;;;;;7.45;5.43;;;16.70;99.90;;;;;;5024895;28;20206;-63
2022/04/13 10:15:33;;;;;;;15.18;5.70;;;16.90;99.90;;;;;;5022742;28;20212;-63
2022/04/13 10:18:01;;;;;;;8.30;5.40;;;16.90;99.90;;;;;;5021728;28;20239;-62
2022/04/13 10:20:47;;;;;;;14.48;5.43;;;17.00;99.90;;;;;;5021593;28;20250;-63
2022/04/13 10:23:15;;;;;;;6.95;4.57;;;17.00;99.90;;;;;;5013453;28;20289;-62
2022/04/13 10:25:44;;;;;;;10.13;5.13;;;17.10;99.90;;;;;;5017617;28;20252;-61
2022/04/13 10:28:12;;;;;;;11.68;5.75;;;17.10;99.90;;;;;;5025321;28;20265;-63
2022/04/13 10:30:42;;;;;;;7.80;4.88;;;17.30;99.90;;;;;;5019113;28;20662;-61
2022/04/13 10:33:12;;;;;;;6.75;4.57;;;17.30;99.90;;;;;;5025001;28;20224;-62
2022/04/13 10:35:40;;;;;;;11.75;4.60;;;17.30;99.90;;;;;;5017573;28;20197;-63
2022/04/13 10:38:09;;;;;;;10.93;4.90;;;17.40;99.90;;;;;;5013569;28;20210;-64
2022/04/13 10:40:38;;;;;;;8.60;4.90;;;17.40;99.90;;;;;;5008794;28;20766;-63
2022/04/13 10:43:08;;;;;;;10.95;5.22;;;17.60;99.90;;;;;;5019635;28;20299;-63
2022/04/13 10:45:38;;;;;;;8.80;5.22;;;17.60;99.90;;;;;;5024637;28;20203;-63
2022/04/13 10:48:07;;;;;;;9.75;5.32;;;17.70;99.90;;;;;;5016687;28;20217;-63
2022/04/13 10:50:38;;;;;;;10.98;5.80;;;17.70;99.90;;;;;;5022349;28;20272;-63
2022/04/13 10:53:19;;;;;;;14.25;5.60;;;17.80;99.90;;;;;;5006110;28;21577;-63
2022/04/13 10:55:53;;;;;;;8.88;5.10;;;17.90;99.90;;;;;;5021086;28;20248;-63
2022/04/13 10:58:29;;;;;;;13.95;5.50;;;17.90;99.90;;;;;;5007751;28;20823;-63
2022/04/13 11:01:03;;;;;;;8.32;4.93;;;18.00;99.90;;;;;;4986410;28;20227;-64
2022/04/13 11:03:34;;;;;;;11.15;5.13;;;18.10;99.90;;;;;;4979699;28;20229;-63
2022/04/13 11:06:03;;;;;;;11.95;5.00;;;18.20;99.90;;;;;;4992786;28;20215;-63
2022/04/13 11:08:38;;;;;;;8.20;5.28;;;18.20;99.90;;;;;;5010126;28;20222;-63
2022/04/13 11:11:06;;;;;;;12.02;4.85;;;18.30;99.90;;;;;;4989604;28;21137;-63
2022/04/13 11:13:34;;;;;;;13.15;5.40;;;18.20;99.90;;;;;;5006755;28;20302;-63
2022/04/13 11:16:15;;;;;;;11.10;5.00;;;18.20;99.90;;;;;;5007781;28;20198;-63
2022/04/13 11:18:43;;;;;;;8.73;3.97;;;18.20;99.90;;;;;;4984852;28;20233;-64
2022/04/13 11:21:11;;;;;;;13.88;4.57;;;18.30;99.90;;;;;;5005186;28;20222;-63
2022/04/13 11:23:49;;;;;;;13.65;4.18;;;18.20;99.90;;;;;;4990402;28;20257;-63
2022/04/13 11:26:17;;;;;;;12.00;5.18;;;18.20;99.90;;;;;;4979040;28;20232;-63
2022/04/13 11:28:45;;;;;;;8.68;4.03;;;18.30;99.90;;;;;;5003824;28;20205;-63
2022/04/13 11:31:13;;;;;;;5.50;4.07;;;18.40;99.90;;;;;;4987616;28;20230;-64
2022/04/13 11:33:56;;;;;;;10.27;4.00;;;18.40;99.90;;;;;;4984312;28;20392;-64
2022/04/13 11:36:25;;;;;;;13.40;4.28;;;18.50;99.90;;;;;;5007056;28;20200;-63
2022/04/13 11:38:53;;;;;;;6.20;5.10;;;18.70;99.90;;;;;;5010268;28;20214;-63
2022/04/13 11:41:21;;;;;;;6.65;4.40;;;18.80;99.90;;;;;;4988801;28;20257;-63
2022/04/13 11:43:50;;;;;;;6.07;4.70;;;18.80;99.90;;;;;;4999426;28;20253;-63
2022/04/13 11:46:38;;;;;;;9.98;4.60;;;19.00;99.90;;;;;;5001530;28;20205;-64
2022/04/13 11:49:09;;;;;;;15.18;5.18;;;19.00;99.90;;;;;;4988859;28;20235;-63
2022/04/13 11:51:37;;;;;;;13.25;5.25;;;19.10;99.90;;;;;;5006639;28;20300;-63
2022/04/13 11:54:09;;;;;;;11.23;4.50;;;19.10;99.90;;;;;;5004439;28;20206;-63
2022/04/13 11:56:37;;;;;;;9.82;3.90;;;19.10;99.90;;;;;;4993646;28;20213;-63
2022/04/13 11:59:07;;;;;;;8.43;4.60;;;19.00;99.90;;;;;;5011228;28;20207;-63
2022/04/13 12:01:45;;;;;;;9.23;3.83;;;19.00;99.90;;;;;;4989856;28;20206;-63
2022/04/13 12:04:14;;;;;;;12.25;5.53;;;19.00;99.90;;;;;;4995356;28;20234;-64
2022/04/13 12:06:43;;;;;;;11.73;5.03;;;19.10;99.90;;;;;;4972427;28;20221;-63
2022/04/13 12:09:10;;;;;;;14.95;4.60;;;19.20;99.90;;;;;;4999640;28;20205;-63
2022/04/13 12:11:43;;;;;;;8.73;4.50;;;19.40;99.90;;;;;;4998404;28;20207;-64
2022/04/13 12:14:25;;;;;;;11.02;4.47;;;19.50;99.90;;;;;;5009770;28;20210;-64
2022/04/13 12:16:56;;;;;;;8.07;4.20;;;19.50;99.90;;;;;;5006753;28;25260;-64
2022/04/13 12:19:23;;;;;;;11.57;4.40;;;19.40;99.90;;;;;;4993425;28;20305;-63
2022/04/13 12:21:50;;;;;;;14.35;4.70;;;19.50;99.90;;;;;;4976596;28;20332;-63
2022/04/13 12:24:17;;;;;;;10.40;4.35;;;19.40;99.90;;;;;;5002896;28;20225;-63
2022/04/13 12:26:46;;;;;;;7.65;4.72;;;19.30;99.90;;;;;;4986415;28;21156;-63
2022/04/13 12:29:16;;;;;;;9.30;4.90;;;19.40;99.90;;;;;;4998095;28;20199;-62
2022/04/13 12:31:48;;;;;;;10.25;5.50;;;19.40;99.90;;;;;;4985298;28;20202;-62
2022/04/13 12:34:16;;;;;;;12.55;5.13;;;19.40;99.90;;;;;;4987614;28;20202;-63
2022/04/13 12:36:43;;;;;;;8.35;5.35;;;19.60;99.90;;;;;;4973125;28;20207;-62
2022/04/13 12:39:12;;;;;;;12.45;5.22;;;19.60;99.90;;;;;;4991589;28;20222;-62
2022/04/13 12:41:39;;;;;;;8.65;5.40;;;19.40;99.90;;;;;;4998666;28;20226;-62
2022/04/13 12:44:07;;;;;;;13.75;5.63;;;19.50;99.90;;;;;;4976232;28;20229;-62
2022/04/13 12:46:35;;;;;;;8.45;4.72;;;19.50;99.90;;;;;;4994949;28;20758;-62
2022/04/13 12:49:04;;;;;;;32.10;6.10;;;19.70;99.90;;;;;;4992176;28;20658;-62